sensor_id;sensor_type;location;lat;lon;timestamp;P1;durP1;ratioP1;P2;durP2;ratioP2
75504;SDS011;64085;54.974;73.410;2023-04-30T00:01:41;42.17;;;27.65;;
75504;SDS011;64085;54.974;73.410;2023-04-30T00:04:25;49.42;;;29.48;;
75504;SDS011;64085;54.974;73.410;2023-04-30T00:06:51;47.08;;;29.67;;
75504;SDS011;64085;54.974;73.410;2023-04-30T00:09:17;52.17;;;30.95;;
75504;SDS011;64085;54.974;73.410;2023-04-30T00:11:42;52.78;;;32.35;;
75504;SDS011;64085;54.974;73.410;2023-04-30T00:14:26;54.25;;;36.13;;
75504;SDS011;64085;54.974;73.410;2023-04-30T00:16:52;47.17;;;33.10;;
75504;SDS011;64085;54.974;73.410;2023-04-30T00:19:18;47.55;;;35.03;;
75504;SDS011;64085;54.974;73.410;2023-04-30T00:21:43;48.40;;;32.80;;
75504;SDS011;64085;54.974;73.410;2023-04-30T00:24:10;47.83;;;31.75;;
75504;SDS011;64085;54.974;73.410;2023-04-30T00:26:35;51.95;;;33.70;;
75504;SDS011;64085;54.974;73.410;2023-04-30T00:29:01;36.13;;;23.40;;
75504;SDS011;64085;54.974;73.410;2023-04-30T00:31:26;42.58;;;27.58;;
75504;SDS011;64085;54.974;73.410;2023-04-30T00:33:52;43.22;;;29.35;;
75504;SDS011;64085;54.974;73.410;2023-04-30T00:36:18;34.83;;;25.52;;
75504;SDS011;64085;54.974;73.410;2023-04-30T00:38:43;38.15;;;26.58;;
75504;SDS011;64085;54.974;73.410;2023-04-30T00:43:54;38.90;;;26.98;;
75504;SDS011;64085;54.974;73.410;2023-04-30T00:46:20;52.55;;;33.15;;
75504;SDS011;64085;54.974;73.410;2023-04-30T00:48:45;50.53;;;32.35;;
75504;SDS011;64085;54.974;73.410;2023-04-30T00:51:12;50.70;;;33.72;;
75504;SDS011;64085;54.974;73.410;2023-04-30T00:53:38;46.45;;;34.70;;
75504;SDS011;64085;54.974;73.410;2023-04-30T00:56:05;40.67;;;30.00;;
75504;SDS011;64085;54.974;73.410;2023-04-30T00:58:51;33.55;;;26.33;;
75504;SDS011;64085;54.974;73.410;2023-04-30T01:01:21;28.98;;;22.38;;
75504;SDS011;64085;54.974;73.410;2023-04-30T01:04:11;35.58;;;26.05;;
75504;SDS011;64085;54.974;73.410;2023-04-30T01:06:36;35.50;;;26.38;;
75504;SDS011;64085;54.974;73.410;2023-04-30T01:09:02;36.17;;;29.60;;
75504;SDS011;64085;54.974;73.410;2023-04-30T01:14:30;35.17;;;28.23;;
75504;SDS011;64085;54.974;73.410;2023-04-30T01:20:13;37.63;;;31.02;;
75504;SDS011;64085;54.974;73.410;2023-04-30T01:22:47;41.25;;;28.02;;
75504;SDS011;64085;54.974;73.410;2023-04-30T01:28:22;37.22;;;28.23;;
75504;SDS011;64085;54.974;73.410;2023-04-30T01:30:49;36.35;;;27.85;;
75504;SDS011;64085;54.974;73.410;2023-04-30T01:33:15;36.92;;;28.83;;
75504;SDS011;64085;54.974;73.410;2023-04-30T01:45:06;33.85;;;25.50;;
75504;SDS011;64085;54.974;73.410;2023-04-30T01:48:18;34.13;;;28.17;;
75504;SDS011;64085;54.974;73.410;2023-04-30T01:53:31;31.27;;;23.75;;
75504;SDS011;64085;54.974;73.410;2023-04-30T01:56:03;25.40;;;21.38;;
75504;SDS011;64085;54.974;73.410;2023-04-30T01:58:30;23.90;;;18.40;;
75504;SDS011;64085;54.974;73.410;2023-04-30T02:00:56;23.95;;;20.17;;
75504;SDS011;64085;54.974;73.410;2023-04-30T02:03:40;24.00;;;20.63;;
75504;SDS011;64085;54.974;73.410;2023-04-30T02:06:06;28.27;;;21.88;;
75504;SDS011;64085;54.974;73.410;2023-04-30T02:08:31;22.70;;;18.35;;
75504;SDS011;64085;54.974;73.410;2023-04-30T02:10:57;26.75;;;19.60;;
75504;SDS011;64085;54.974;73.410;2023-04-30T02:16:07;28.33;;;21.48;;
75504;SDS011;64085;54.974;73.410;2023-04-30T02:18:32;23.50;;;18.35;;
75504;SDS011;64085;54.974;73.410;2023-04-30T02:20:58;20.45;;;16.63;;
75504;SDS011;64085;54.974;73.410;2023-04-30T02:23:24;19.35;;;15.43;;
75504;SDS011;64085;54.974;73.410;2023-04-30T02:25:50;18.20;;;14.38;;
75504;SDS011;64085;54.974;73.410;2023-04-30T02:28:15;17.80;;;14.82;;
75504;SDS011;64085;54.974;73.410;2023-04-30T02:30:41;16.42;;;13.32;;
75504;SDS011;64085;54.974;73.410;2023-04-30T02:33:25;14.48;;;12.18;;
75504;SDS011;64085;54.974;73.410;2023-04-30T02:38:35;13.55;;;10.68;;
75504;SDS011;64085;54.974;73.410;2023-04-30T02:41:00;13.35;;;10.73;;
75504;SDS011;64085;54.974;73.410;2023-04-30T02:43:27;11.77;;;10.18;;
75504;SDS011;64085;54.974;73.410;2023-04-30T02:46:29;11.40;;;10.10;;
75504;SDS011;64085;54.974;73.410;2023-04-30T02:48:55;15.18;;;10.93;;
75504;SDS011;64085;54.974;73.410;2023-04-30T02:51:21;10.70;;;9.60;;
75504;SDS011;64085;54.974;73.410;2023-04-30T02:53:46;12.90;;;10.52;;
75504;SDS011;64085;54.974;73.410;2023-04-30T02:56:12;10.38;;;9.25;;
75504;SDS011;64085;54.974;73.410;2023-04-30T02:58:56;11.43;;;9.57;;
75504;SDS011;64085;54.974;73.410;2023-04-30T03:01:22;13.95;;;10.80;;
75504;SDS011;64085;54.974;73.410;2023-04-30T03:06:32;13.40;;;11.27;;
75504;SDS011;64085;54.974;73.410;2023-04-30T03:09:16;12.05;;;10.65;;
75504;SDS011;64085;54.974;73.410;2023-04-30T03:11:42;15.38;;;12.90;;
75504;SDS011;64085;54.974;73.410;2023-04-30T03:14:07;14.98;;;12.73;;
75504;SDS011;64085;54.974;73.410;2023-04-30T03:16:52;13.93;;;11.82;;
75504;SDS011;64085;54.974;73.410;2023-04-30T03:19:18;9.50;;;8.50;;
75504;SDS011;64085;54.974;73.410;2023-04-30T03:22:02;9.85;;;8.75;;
75504;SDS011;64085;54.974;73.410;2023-04-30T03:24:48;11.00;;;7.85;;
75504;SDS011;64085;54.974;73.410;2023-04-30T03:27:13;9.15;;;8.35;;
75504;SDS011;64085;54.974;73.410;2023-04-30T03:29:41;11.70;;;9.23;;
75504;SDS011;64085;54.974;73.410;2023-04-30T03:32:07;14.50;;;9.07;;
75504;SDS011;64085;54.974;73.410;2023-04-30T03:37:35;10.35;;;8.27;;
75504;SDS011;64085;54.974;73.410;2023-04-30T03:40:20;11.38;;;8.60;;
75504;SDS011;64085;54.974;73.410;2023-04-30T03:42:45;12.07;;;8.52;;
75504;SDS011;64085;54.974;73.410;2023-04-30T03:45:11;10.82;;;9.10;;
75504;SDS011;64085;54.974;73.410;2023-04-30T03:47:36;11.20;;;8.27;;
75504;SDS011;64085;54.974;73.410;2023-04-30T03:50:02;13.23;;;9.05;;
75504;SDS011;64085;54.974;73.410;2023-04-30T03:52:28;12.70;;;9.35;;
75504;SDS011;64085;54.974;73.410;2023-04-30T03:54:55;11.45;;;9.73;;
75504;SDS011;64085;54.974;73.410;2023-04-30T03:57:21;9.88;;;8.52;;
75504;SDS011;64085;54.974;73.410;2023-04-30T03:59:49;10.25;;;8.65;;
75504;SDS011;64085;54.974;73.410;2023-04-30T04:07:43;7.88;;;6.78;;
75504;SDS011;64085;54.974;73.410;2023-04-30T04:10:27;9.40;;;5.97;;
75504;SDS011;64085;54.974;73.410;2023-04-30T04:12:53;7.45;;;4.88;;
75504;SDS011;64085;54.974;73.410;2023-04-30T04:15:19;6.50;;;4.63;;
75504;SDS011;64085;54.974;73.410;2023-04-30T04:17:44;6.22;;;4.30;;
75504;SDS011;64085;54.974;73.410;2023-04-30T04:20:10;6.40;;;4.28;;
75504;SDS011;64085;54.974;73.410;2023-04-30T04:22:37;5.38;;;4.10;;
75504;SDS011;64085;54.974;73.410;2023-04-30T04:25:02;6.03;;;4.20;;
75504;SDS011;64085;54.974;73.410;2023-04-30T04:27:28;5.82;;;3.90;;
75504;SDS011;64085;54.974;73.410;2023-04-30T04:29:54;4.03;;;3.25;;
75504;SDS011;64085;54.974;73.410;2023-04-30T04:32:19;6.97;;;3.60;;
75504;SDS011;64085;54.974;73.410;2023-04-30T04:35:03;6.40;;;4.57;;
75504;SDS011;64085;54.974;73.410;2023-04-30T04:37:30;7.55;;;4.63;;
75504;SDS011;64085;54.974;73.410;2023-04-30T04:39:56;7.45;;;4.43;;
75504;SDS011;64085;54.974;73.410;2023-04-30T04:42:21;15.10;;;6.45;;
75504;SDS011;64085;54.974;73.410;2023-04-30T04:45:06;13.00;;;6.28;;
75504;SDS011;64085;54.974;73.410;2023-04-30T04:47:32;8.98;;;5.40;;
75504;SDS011;64085;54.974;73.410;2023-04-30T04:49:58;7.28;;;5.15;;
75504;SDS011;64085;54.974;73.410;2023-04-30T04:52:23;6.10;;;5.43;;
75504;SDS011;64085;54.974;73.410;2023-04-30T04:54:49;9.40;;;5.05;;
75504;SDS011;64085;54.974;73.410;2023-04-30T04:57:15;9.27;;;4.35;;
75504;SDS011;64085;54.974;73.410;2023-04-30T05:02:25;7.78;;;4.20;;
75504;SDS011;64085;54.974;73.410;2023-04-30T05:04:50;6.53;;;3.55;;
75504;SDS011;64085;54.974;73.410;2023-04-30T05:07:16;10.48;;;4.45;;
75504;SDS011;64085;54.974;73.410;2023-04-30T05:09:43;8.73;;;3.75;;
75504;SDS011;64085;54.974;73.410;2023-04-30T05:12:26;10.50;;;3.97;;
75504;SDS011;64085;54.974;73.410;2023-04-30T05:14:52;6.85;;;3.47;;
75504;SDS011;64085;54.974;73.410;2023-04-30T05:17:18;5.63;;;3.80;;
75504;SDS011;64085;54.974;73.410;2023-04-30T05:20:02;4.22;;;3.42;;
75504;SDS011;64085;54.974;73.410;2023-04-30T05:25:34;8.82;;;3.13;;
75504;SDS011;64085;54.974;73.410;2023-04-30T05:28:00;6.72;;;2.80;;
75504;SDS011;64085;54.974;73.410;2023-04-30T05:30:26;9.00;;;3.13;;
75504;SDS011;64085;54.974;73.410;2023-04-30T05:32:52;7.68;;;3.60;;
75504;SDS011;64085;54.974;73.410;2023-04-30T05:35:18;5.82;;;3.30;;
75504;SDS011;64085;54.974;73.410;2023-04-30T05:40:28;9.55;;;3.55;;
75504;SDS011;64085;54.974;73.410;2023-04-30T05:42:54;12.02;;;3.83;;
75504;SDS011;64085;54.974;73.410;2023-04-30T05:45:20;14.07;;;4.63;;
75504;SDS011;64085;54.974;73.410;2023-04-30T05:47:46;10.80;;;4.05;;
75504;SDS011;64085;54.974;73.410;2023-04-30T05:50:11;13.13;;;4.55;;
75504;SDS011;64085;54.974;73.410;2023-04-30T05:52:37;8.63;;;4.15;;
75504;SDS011;64085;54.974;73.410;2023-04-30T05:55:03;10.20;;;3.40;;
75504;SDS011;64085;54.974;73.410;2023-04-30T05:57:29;8.95;;;4.28;;
75504;SDS011;64085;54.974;73.410;2023-04-30T06:00:13;7.07;;;3.80;;
75504;SDS011;64085;54.974;73.410;2023-04-30T06:02:40;4.68;;;3.45;;
75504;SDS011;64085;54.974;73.410;2023-04-30T06:05:08;8.60;;;3.83;;
75504;SDS011;64085;54.974;73.410;2023-04-30T06:07:34;7.57;;;4.18;;
75504;SDS011;64085;54.974;73.410;2023-04-30T06:10:18;9.70;;;3.65;;
75504;SDS011;64085;54.974;73.410;2023-04-30T06:12:44;6.60;;;4.55;;
75504;SDS011;64085;54.974;73.410;2023-04-30T06:15:09;8.00;;;4.72;;
75504;SDS011;64085;54.974;73.410;2023-04-30T06:17:35;7.28;;;4.28;;
75504;SDS011;64085;54.974;73.410;2023-04-30T06:20:01;12.38;;;4.97;;
75504;SDS011;64085;54.974;73.410;2023-04-30T06:22:30;10.45;;;5.53;;
75504;SDS011;64085;54.974;73.410;2023-04-30T06:24:57;7.88;;;5.28;;
75504;SDS011;64085;54.974;73.410;2023-04-30T06:27:23;8.75;;;5.40;;
75504;SDS011;64085;54.974;73.410;2023-04-30T06:32:36;5.70;;;4.32;;
75504;SDS011;64085;54.974;73.410;2023-04-30T06:35:02;12.23;;;5.32;;
75504;SDS011;64085;54.974;73.410;2023-04-30T06:37:27;9.88;;;4.65;;
75504;SDS011;64085;54.974;73.410;2023-04-30T06:39:53;9.68;;;4.30;;
75504;SDS011;64085;54.974;73.410;2023-04-30T06:42:19;6.97;;;4.07;;
75504;SDS011;64085;54.974;73.410;2023-04-30T06:44:44;7.50;;;5.03;;
75504;SDS011;64085;54.974;73.410;2023-04-30T06:47:11;12.02;;;5.65;;
75504;SDS011;64085;54.974;73.410;2023-04-30T06:50:14;14.48;;;7.28;;
75504;SDS011;64085;54.974;73.410;2023-04-30T06:52:40;10.48;;;7.18;;
75504;SDS011;64085;54.974;73.410;2023-04-30T06:55:24;11.38;;;6.55;;
75504;SDS011;64085;54.974;73.410;2023-04-30T06:57:52;14.65;;;8.25;;
75504;SDS011;64085;54.974;73.410;2023-04-30T07:00:18;12.65;;;8.77;;
75504;SDS011;64085;54.974;73.410;2023-04-30T07:02:44;19.85;;;9.00;;
75504;SDS011;64085;54.974;73.410;2023-04-30T07:05:11;13.73;;;4.80;;
75504;SDS011;64085;54.974;73.410;2023-04-30T07:07:37;4.10;;;2.70;;
75504;SDS011;64085;54.974;73.410;2023-04-30T07:10:03;9.35;;;4.47;;
75504;SDS011;64085;54.974;73.410;2023-04-30T07:12:29;8.18;;;3.90;;
75504;SDS011;64085;54.974;73.410;2023-04-30T07:14:55;7.80;;;4.30;;
75504;SDS011;64085;54.974;73.410;2023-04-30T07:17:39;5.03;;;3.13;;
75504;SDS011;64085;54.974;73.410;2023-04-30T07:20:06;17.58;;;5.68;;
75504;SDS011;64085;54.974;73.410;2023-04-30T07:22:50;9.95;;;4.75;;
75504;SDS011;64085;54.974;73.410;2023-04-30T07:25:16;9.50;;;4.63;;
75504;SDS011;64085;54.974;73.410;2023-04-30T07:27:42;7.88;;;4.35;;
75504;SDS011;64085;54.974;73.410;2023-04-30T07:30:26;7.00;;;4.13;;
75504;SDS011;64085;54.974;73.410;2023-04-30T07:32:52;12.82;;;5.22;;
75504;SDS011;64085;54.974;73.410;2023-04-30T07:35:17;8.52;;;4.15;;
75504;SDS011;64085;54.974;73.410;2023-04-30T07:43:13;9.32;;;4.90;;
75504;SDS011;64085;54.974;73.410;2023-04-30T07:45:38;9.75;;;3.67;;
75504;SDS011;64085;54.974;73.410;2023-04-30T07:48:04;10.73;;;4.30;;
75504;SDS011;64085;54.974;73.410;2023-04-30T07:55:59;5.35;;;2.90;;
75504;SDS011;64085;54.974;73.410;2023-04-30T07:58:24;12.23;;;3.80;;
75504;SDS011;64085;54.974;73.410;2023-04-30T08:00:50;3.53;;;3.10;;
75504;SDS011;64085;54.974;73.410;2023-04-30T08:03:34;5.70;;;3.13;;
75504;SDS011;64085;54.974;73.410;2023-04-30T08:06:00;6.25;;;4.43;;
75504;SDS011;64085;54.974;73.410;2023-04-30T08:08:26;5.78;;;3.65;;
75504;SDS011;64085;54.974;73.410;2023-04-30T08:10:52;7.25;;;4.13;;
75504;SDS011;64085;54.974;73.410;2023-04-30T08:13:36;8.02;;;3.50;;
75504;SDS011;64085;54.974;73.410;2023-04-30T08:16:02;8.10;;;3.38;;
75504;SDS011;64085;54.974;73.410;2023-04-30T08:21:30;7.57;;;4.13;;
75504;SDS011;64085;54.974;73.410;2023-04-30T08:23:56;9.63;;;5.35;;
75504;SDS011;64085;54.974;73.410;2023-04-30T08:26:22;7.75;;;5.00;;
75504;SDS011;64085;54.974;73.410;2023-04-30T08:28:48;8.32;;;4.88;;
75504;SDS011;64085;54.974;73.410;2023-04-30T08:31:32;9.00;;;5.93;;
75504;SDS011;64085;54.974;73.410;2023-04-30T08:36:42;8.05;;;5.93;;
75504;SDS011;64085;54.974;73.410;2023-04-30T08:39:08;9.90;;;6.07;;
75504;SDS011;64085;54.974;73.410;2023-04-30T08:41:33;5.32;;;3.58;;
75504;SDS011;64085;54.974;73.410;2023-04-30T08:44:01;6.68;;;4.22;;
75504;SDS011;64085;54.974;73.410;2023-04-30T08:48:56;15.75;;;5.05;;
75504;SDS011;64085;54.974;73.410;2023-04-30T08:51:22;9.30;;;2.97;;
75504;SDS011;64085;54.974;73.410;2023-04-30T08:53:49;8.32;;;3.45;;
75504;SDS011;64085;54.974;73.410;2023-04-30T08:56:35;4.03;;;3.08;;
75504;SDS011;64085;54.974;73.410;2023-04-30T08:59:01;5.15;;;3.60;;
75504;SDS011;64085;54.974;73.410;2023-04-30T09:01:27;6.35;;;3.40;;
75504;SDS011;64085;54.974;73.410;2023-04-30T09:06:38;7.72;;;4.25;;
75504;SDS011;64085;54.974;73.410;2023-04-30T09:09:27;8.68;;;3.97;;
75504;SDS011;64085;54.974;73.410;2023-04-30T09:15:05;8.35;;;4.07;;
75504;SDS011;64085;54.974;73.410;2023-04-30T09:17:33;6.05;;;3.40;;
75504;SDS011;64085;54.974;73.410;2023-04-30T09:20:05;3.63;;;2.83;;
75504;SDS011;64085;54.974;73.410;2023-04-30T09:22:38;5.40;;;3.75;;
75504;SDS011;64085;54.974;73.410;2023-04-30T09:25:05;8.93;;;3.80;;
75504;SDS011;64085;54.974;73.410;2023-04-30T09:27:33;8.45;;;4.75;;
75504;SDS011;64085;54.974;73.410;2023-04-30T09:29:59;4.68;;;3.22;;
75504;SDS011;64085;54.974;73.410;2023-04-30T09:32:25;6.40;;;3.75;;
75504;SDS011;64085;54.974;73.410;2023-04-30T09:34:50;6.85;;;3.47;;
75504;SDS011;64085;54.974;73.410;2023-04-30T09:37:18;10.32;;;4.43;;
75504;SDS011;64085;54.974;73.410;2023-04-30T09:42:13;7.78;;;4.03;;
75504;SDS011;64085;54.974;73.410;2023-04-30T09:44:39;6.13;;;3.60;;
75504;SDS011;64085;54.974;73.410;2023-04-30T09:47:15;6.25;;;3.30;;
75504;SDS011;64085;54.974;73.410;2023-04-30T09:49:45;3.42;;;2.50;;
75504;SDS011;64085;54.974;73.410;2023-04-30T09:52:15;4.57;;;3.40;;
75504;SDS011;64085;54.974;73.410;2023-04-30T09:54:45;6.72;;;2.95;;
75504;SDS011;64085;54.974;73.410;2023-04-30T09:57:12;5.72;;;4.15;;
75504;SDS011;64085;54.974;73.410;2023-04-30T09:59:43;6.00;;;4.00;;
75504;SDS011;64085;54.974;73.410;2023-04-30T10:02:14;6.43;;;4.30;;
75504;SDS011;64085;54.974;73.410;2023-04-30T10:04:44;8.10;;;5.35;;
75504;SDS011;64085;54.974;73.410;2023-04-30T10:07:16;10.50;;;4.55;;
75504;SDS011;64085;54.974;73.410;2023-04-30T10:12:50;7.10;;;5.22;;
75504;SDS011;64085;54.974;73.410;2023-04-30T10:15:25;8.43;;;5.13;;
75504;SDS011;64085;54.974;73.410;2023-04-30T10:18:01;7.30;;;5.93;;
75504;SDS011;64085;54.974;73.410;2023-04-30T10:20:30;15.18;;;7.05;;
75504;SDS011;64085;54.974;73.410;2023-04-30T10:22:59;9.20;;;6.75;;
75504;SDS011;64085;54.974;73.410;2023-04-30T10:25:43;9.00;;;5.70;;
75504;SDS011;64085;54.974;73.410;2023-04-30T10:28:09;10.27;;;6.00;;
75504;SDS011;64085;54.974;73.410;2023-04-30T10:30:53;8.38;;;6.65;;
75504;SDS011;64085;54.974;73.410;2023-04-30T10:36:01;11.35;;;7.40;;
75504;SDS011;64085;54.974;73.410;2023-04-30T10:38:30;14.30;;;8.23;;
75504;SDS011;64085;54.974;73.410;2023-04-30T10:41:15;13.07;;;8.05;;
75504;SDS011;64085;54.974;73.410;2023-04-30T10:43:44;13.40;;;9.95;;
75504;SDS011;64085;54.974;73.410;2023-04-30T10:46:16;12.85;;;9.52;;
75504;SDS011;64085;54.974;73.410;2023-04-30T10:48:46;13.75;;;9.27;;
75504;SDS011;64085;54.974;73.410;2023-04-30T10:51:12;11.02;;;9.68;;
75504;SDS011;64085;54.974;73.410;2023-04-30T10:53:38;15.20;;;11.27;;
75504;SDS011;64085;54.974;73.410;2023-04-30T10:56:06;13.45;;;11.15;;
75504;SDS011;64085;54.974;73.410;2023-04-30T10:58:38;17.45;;;10.38;;
75504;SDS011;64085;54.974;73.410;2023-04-30T11:03:36;18.33;;;12.40;;
75504;SDS011;64085;54.974;73.410;2023-04-30T11:06:11;10.77;;;9.68;;
75504;SDS011;64085;54.974;73.410;2023-04-30T11:08:43;21.48;;;12.90;;
75504;SDS011;64085;54.974;73.410;2023-04-30T11:11:32;19.90;;;14.18;;
75504;SDS011;64085;54.974;73.410;2023-04-30T11:16:48;20.73;;;15.45;;
75504;SDS011;64085;54.974;73.410;2023-04-30T11:19:15;21.95;;;16.70;;
75504;SDS011;64085;54.974;73.410;2023-04-30T11:27:25;22.42;;;18.83;;
75504;SDS011;64085;54.974;73.410;2023-04-30T11:29:53;24.23;;;18.55;;
75504;SDS011;64085;54.974;73.410;2023-04-30T11:32:58;18.25;;;15.73;;
75504;SDS011;64085;54.974;73.410;2023-04-30T11:35:24;20.95;;;15.35;;
75504;SDS011;64085;54.974;73.410;2023-04-30T11:37:53;20.55;;;15.95;;
75504;SDS011;64085;54.974;73.410;2023-04-30T11:40:19;20.75;;;14.93;;
75504;SDS011;64085;54.974;73.410;2023-04-30T11:42:46;25.80;;;18.52;;
75504;SDS011;64085;54.974;73.410;2023-04-30T11:45:15;22.83;;;17.83;;
75504;SDS011;64085;54.974;73.410;2023-04-30T11:48:00;24.42;;;17.10;;
75504;SDS011;64085;54.974;73.410;2023-04-30T11:50:26;18.95;;;14.02;;
75504;SDS011;64085;54.974;73.410;2023-04-30T11:53:10;20.48;;;16.52;;
75504;SDS011;64085;54.974;73.410;2023-04-30T11:55:36;15.70;;;11.57;;
75504;SDS011;64085;54.974;73.410;2023-04-30T11:58:07;15.65;;;11.15;;
75504;SDS011;64085;54.974;73.410;2023-04-30T12:00:34;15.93;;;12.15;;
75504;SDS011;64085;54.974;73.410;2023-04-30T12:03:00;17.23;;;12.00;;
75504;SDS011;64085;54.974;73.410;2023-04-30T12:05:27;18.95;;;15.75;;
75504;SDS011;64085;54.974;73.410;2023-04-30T12:07:59;20.58;;;15.38;;
75504;SDS011;64085;54.974;73.410;2023-04-30T12:10:44;14.73;;;10.20;;
75504;SDS011;64085;54.974;73.410;2023-04-30T12:13:13;12.65;;;9.68;;
75504;SDS011;64085;54.974;73.410;2023-04-30T12:15:40;16.27;;;11.68;;
75504;SDS011;64085;54.974;73.410;2023-04-30T12:18:10;13.80;;;9.23;;
75504;SDS011;64085;54.974;73.410;2023-04-30T12:20:37;11.57;;;10.10;;
75504;SDS011;64085;54.974;73.410;2023-04-30T12:23:04;14.38;;;10.48;;
75504;SDS011;64085;54.974;73.410;2023-04-30T12:25:49;15.68;;;9.25;;
75504;SDS011;64085;54.974;73.410;2023-04-30T12:31:20;18.00;;;11.18;;
75504;SDS011;64085;54.974;73.410;2023-04-30T12:33:52;15.90;;;12.13;;
75504;SDS011;64085;54.974;73.410;2023-04-30T12:36:19;21.92;;;14.95;;
75504;SDS011;64085;54.974;73.410;2023-04-30T12:41:43;17.75;;;13.05;;
75504;SDS011;64085;54.974;73.410;2023-04-30T12:47:06;16.40;;;12.68;;
75504;SDS011;64085;54.974;73.410;2023-04-30T12:49:34;14.75;;;9.65;;
75504;SDS011;64085;54.974;73.410;2023-04-30T12:52:03;15.05;;;12.18;;
75504;SDS011;64085;54.974;73.410;2023-04-30T12:58:04;16.77;;;11.25;;
75504;SDS011;64085;54.974;73.410;2023-04-30T13:00:41;22.40;;;11.80;;
75504;SDS011;64085;54.974;73.410;2023-04-30T13:03:17;15.25;;;11.45;;
75504;SDS011;64085;54.974;73.410;2023-04-30T13:05:45;20.27;;;9.80;;
75504;SDS011;64085;54.974;73.410;2023-04-30T13:08:12;15.00;;;10.95;;
75504;SDS011;64085;54.974;73.410;2023-04-30T13:10:56;15.50;;;11.13;;
75504;SDS011;64085;54.974;73.410;2023-04-30T13:13:22;14.55;;;9.82;;
75504;SDS011;64085;54.974;73.410;2023-04-30T13:18:51;16.48;;;11.13;;
75504;SDS011;64085;54.974;73.410;2023-04-30T13:21:16;19.15;;;12.43;;
75504;SDS011;64085;54.974;73.410;2023-04-30T13:23:42;15.40;;;9.85;;
75504;SDS011;64085;54.974;73.410;2023-04-30T13:26:08;15.20;;;10.13;;
75504;SDS011;64085;54.974;73.410;2023-04-30T13:28:34;13.35;;;8.95;;
75504;SDS011;64085;54.974;73.410;2023-04-30T13:30:59;14.73;;;10.00;;
75504;SDS011;64085;54.974;73.410;2023-04-30T13:33:26;13.32;;;8.35;;
75504;SDS011;64085;54.974;73.410;2023-04-30T13:35:52;14.55;;;9.07;;
75504;SDS011;64085;54.974;73.410;2023-04-30T13:38:18;12.93;;;8.40;;
75504;SDS011;64085;54.974;73.410;2023-04-30T13:40:43;19.15;;;10.75;;
75504;SDS011;64085;54.974;73.410;2023-04-30T13:43:09;15.90;;;10.88;;
75504;SDS011;64085;54.974;73.410;2023-04-30T13:45:34;17.33;;;9.73;;
75504;SDS011;64085;54.974;73.410;2023-04-30T13:48:00;21.42;;;13.95;;
75504;SDS011;64085;54.974;73.410;2023-04-30T13:50:26;19.80;;;13.43;;
75504;SDS011;64085;54.974;73.410;2023-04-30T13:52:52;20.48;;;13.90;;
75504;SDS011;64085;54.974;73.410;2023-04-30T13:55:17;23.00;;;14.57;;
75504;SDS011;64085;54.974;73.410;2023-04-30T14:00:28;19.48;;;14.48;;
75504;SDS011;64085;54.974;73.410;2023-04-30T14:02:53;27.88;;;18.52;;
75504;SDS011;64085;54.974;73.410;2023-04-30T14:05:19;22.48;;;15.60;;
75504;SDS011;64085;54.974;73.410;2023-04-30T14:08:04;24.92;;;16.90;;
75504;SDS011;64085;54.974;73.410;2023-04-30T14:10:30;20.73;;;14.98;;
75504;SDS011;64085;54.974;73.410;2023-04-30T14:12:56;24.80;;;16.45;;
75504;SDS011;64085;54.974;73.410;2023-04-30T14:15:22;20.13;;;12.43;;
75504;SDS011;64085;54.974;73.410;2023-04-30T14:17:48;26.17;;;16.85;;
75504;SDS011;64085;54.974;73.410;2023-04-30T14:20:14;31.30;;;18.15;;
75504;SDS011;64085;54.974;73.410;2023-04-30T14:22:40;30.73;;;18.42;;
75504;SDS011;64085;54.974;73.410;2023-04-30T14:25:24;28.30;;;19.58;;
75504;SDS011;64085;54.974;73.410;2023-04-30T14:27:50;28.35;;;18.60;;
75504;SDS011;64085;54.974;73.410;2023-04-30T14:30:16;28.73;;;19.65;;
75504;SDS011;64085;54.974;73.410;2023-04-30T14:33:00;55.80;;;27.85;;
75504;SDS011;64085;54.974;73.410;2023-04-30T14:35:44;46.08;;;25.58;;
75504;SDS011;64085;54.974;73.410;2023-04-30T14:38:11;35.17;;;23.98;;
75504;SDS011;64085;54.974;73.410;2023-04-30T14:40:37;37.58;;;24.08;;
75504;SDS011;64085;54.974;73.410;2023-04-30T14:43:03;39.15;;;26.40;;
75504;SDS011;64085;54.974;73.410;2023-04-30T14:45:47;35.67;;;24.80;;
75504;SDS011;64085;54.974;73.410;2023-04-30T14:48:14;33.67;;;22.20;;
75504;SDS011;64085;54.974;73.410;2023-04-30T14:50:39;34.10;;;21.35;;
75504;SDS011;64085;54.974;73.410;2023-04-30T14:53:06;42.53;;;23.40;;
75504;SDS011;64085;54.974;73.410;2023-04-30T14:55:50;37.90;;;22.80;;
75504;SDS011;64085;54.974;73.410;2023-04-30T14:58:34;36.50;;;22.35;;
75504;SDS011;64085;54.974;73.410;2023-04-30T15:01:00;38.67;;;22.52;;
75504;SDS011;64085;54.974;73.410;2023-04-30T15:03:25;31.98;;;20.10;;
75504;SDS011;64085;54.974;73.410;2023-04-30T15:05:51;32.25;;;20.70;;
75504;SDS011;64085;54.974;73.410;2023-04-30T15:08:16;30.60;;;20.65;;
75504;SDS011;64085;54.974;73.410;2023-04-30T15:11:00;34.08;;;22.73;;
75504;SDS011;64085;54.974;73.410;2023-04-30T15:13:27;30.42;;;21.23;;
75504;SDS011;64085;54.974;73.410;2023-04-30T15:18:37;35.22;;;24.48;;
75504;SDS011;64085;54.974;73.410;2023-04-30T15:21:04;37.65;;;23.77;;
75504;SDS011;64085;54.974;73.410;2023-04-30T15:23:30;39.72;;;24.50;;
75504;SDS011;64085;54.974;73.410;2023-04-30T15:25:55;38.38;;;24.42;;
75504;SDS011;64085;54.974;73.410;2023-04-30T15:28:21;42.35;;;24.60;;
75504;SDS011;64085;54.974;73.410;2023-04-30T15:30:49;43.97;;;28.00;;
75504;SDS011;64085;54.974;73.410;2023-04-30T15:33:33;45.10;;;27.88;;
75504;SDS011;64085;54.974;73.410;2023-04-30T15:36:03;41.60;;;26.15;;
75504;SDS011;64085;54.974;73.410;2023-04-30T15:38:29;42.83;;;28.55;;
75504;SDS011;64085;54.974;73.410;2023-04-30T15:41:13;39.90;;;27.00;;
75504;SDS011;64085;54.974;73.410;2023-04-30T15:46:23;37.83;;;26.50;;
75504;SDS011;64085;54.974;73.410;2023-04-30T15:51:33;38.15;;;29.17;;
75504;SDS011;64085;54.974;73.410;2023-04-30T15:54:17;42.17;;;27.17;;
75504;SDS011;64085;54.974;73.410;2023-04-30T15:56:43;41.30;;;27.30;;
75504;SDS011;64085;54.974;73.410;2023-04-30T15:59:09;39.22;;;26.80;;
75504;SDS011;64085;54.974;73.410;2023-04-30T16:01:35;38.47;;;28.98;;
75504;SDS011;64085;54.974;73.410;2023-04-30T16:04:19;42.20;;;30.55;;
75504;SDS011;64085;54.974;73.410;2023-04-30T16:07:04;45.88;;;29.48;;
75504;SDS011;64085;54.974;73.410;2023-04-30T16:09:30;41.60;;;28.75;;
75504;SDS011;64085;54.974;73.410;2023-04-30T16:11:56;42.88;;;28.23;;
75504;SDS011;64085;54.974;73.410;2023-04-30T16:14:22;40.70;;;30.17;;
75504;SDS011;64085;54.974;73.410;2023-04-30T16:16:48;48.10;;;30.27;;
75504;SDS011;64085;54.974;73.410;2023-04-30T16:19:14;37.53;;;24.70;;
75504;SDS011;64085;54.974;73.410;2023-04-30T16:21:41;40.97;;;31.02;;
75504;SDS011;64085;54.974;73.410;2023-04-30T16:24:07;44.20;;;31.20;;
75504;SDS011;64085;54.974;73.410;2023-04-30T16:26:34;41.97;;;29.27;;
75504;SDS011;64085;54.974;73.410;2023-04-30T16:29:00;46.00;;;29.92;;
75504;SDS011;64085;54.974;73.410;2023-04-30T16:31:26;45.00;;;29.38;;
75504;SDS011;64085;54.974;73.410;2023-04-30T16:33:52;40.58;;;29.08;;
75504;SDS011;64085;54.974;73.410;2023-04-30T16:36:18;45.20;;;32.70;;